sensor_id;sensor_type;location;lat;lon;timestamp;P1;durP1;ratioP1;P2;durP2;ratioP2
38717;SDS011;24468;52.128;9.278;2023-06-26T00:00:14;9.02;;;5.25;;
38717;SDS011;24468;52.128;9.278;2023-06-26T00:02:40;11.15;;;5.65;;
38717;SDS011;24468;52.128;9.278;2023-06-26T00:05:06;7.93;;;5.22;;
38717;SDS011;24468;52.128;9.278;2023-06-26T00:07:32;11.77;;;5.75;;
38717;SDS011;24468;52.128;9.278;2023-06-26T00:10:01;6.95;;;5.53;;
38717;SDS011;24468;52.128;9.278;2023-06-26T00:12:28;8.75;;;5.78;;
38717;SDS011;24468;52.128;9.278;2023-06-26T00:14:55;7.85;;;6.38;;
38717;SDS011;24468;52.128;9.278;2023-06-26T00:17:21;10.50;;;7.03;;
38717;SDS011;24468;52.128;9.278;2023-06-26T00:19:47;6.35;;;5.75;;
38717;SDS011;24468;52.128;9.278;2023-06-26T00:22:13;6.90;;;6.13;;
38717;SDS011;24468;52.128;9.278;2023-06-26T00:24:38;6.72;;;5.90;;
38717;SDS011;24468;52.128;9.278;2023-06-26T00:27:04;6.63;;;6.03;;
38717;SDS011;24468;52.128;9.278;2023-06-26T00:29:30;6.65;;;5.70;;
38717;SDS011;24468;52.128;9.278;2023-06-26T00:31:55;6.78;;;5.93;;
38717;SDS011;24468;52.128;9.278;2023-06-26T00:34:21;10.70;;;6.00;;
38717;SDS011;24468;52.128;9.278;2023-06-26T00:36:46;11.10;;;5.63;;
38717;SDS011;24468;52.128;9.278;2023-06-26T00:39:12;8.77;;;5.85;;
38717;SDS011;24468;52.128;9.278;2023-06-26T00:41:37;9.95;;;5.22;;
38717;SDS011;24468;52.128;9.278;2023-06-26T00:44:03;13.57;;;7.05;;
38717;SDS011;24468;52.128;9.278;2023-06-26T00:46:29;11.23;;;5.50;;
38717;SDS011;24468;52.128;9.278;2023-06-26T00:48:55;7.47;;;5.43;;
38717;SDS011;24468;52.128;9.278;2023-06-26T00:51:25;8.98;;;5.57;;
38717;SDS011;24468;52.128;9.278;2023-06-26T00:53:52;10.75;;;5.95;;
38717;SDS011;24468;52.128;9.278;2023-06-26T00:56:19;8.18;;;5.90;;
38717;SDS011;24468;52.128;9.278;2023-06-26T00:58:45;8.10;;;5.97;;
38717;SDS011;24468;52.128;9.278;2023-06-26T01:01:11;6.35;;;5.75;;
38717;SDS011;24468;52.128;9.278;2023-06-26T01:03:42;6.20;;;5.47;;
38717;SDS011;24468;52.128;9.278;2023-06-26T01:06:11;8.00;;;5.85;;
38717;SDS011;24468;52.128;9.278;2023-06-26T01:08:40;8.15;;;5.72;;
38717;SDS011;24468;52.128;9.278;2023-06-26T01:11:07;7.38;;;6.38;;
38717;SDS011;24468;52.128;9.278;2023-06-26T01:13:33;7.05;;;5.50;;
38717;SDS011;24468;52.128;9.278;2023-06-26T01:16:00;9.73;;;5.65;;
38717;SDS011;24468;52.128;9.278;2023-06-26T01:18:27;7.97;;;5.68;;
38717;SDS011;24468;52.128;9.278;2023-06-26T01:20:54;8.32;;;6.00;;
38717;SDS011;24468;52.128;9.278;2023-06-26T01:23:37;5.97;;;5.47;;
38717;SDS011;24468;52.128;9.278;2023-06-26T01:26:22;6.15;;;5.65;;
38717;SDS011;24468;52.128;9.278;2023-06-26T01:28:51;7.03;;;5.60;;
38717;SDS011;24468;52.128;9.278;2023-06-26T01:31:19;6.90;;;6.05;;
38717;SDS011;24468;52.128;9.278;2023-06-26T01:33:44;7.18;;;5.55;;
38717;SDS011;24468;52.128;9.278;2023-06-26T01:36:11;6.40;;;5.80;;
38717;SDS011;24468;52.128;9.278;2023-06-26T01:38:37;7.38;;;5.55;;
38717;SDS011;24468;52.128;9.278;2023-06-26T01:41:02;7.50;;;5.80;;
38717;SDS011;24468;52.128;9.278;2023-06-26T01:46:39;6.53;;;5.20;;
38717;SDS011;24468;52.128;9.278;2023-06-26T01:57:33;6.47;;;5.32;;
38717;SDS011;24468;52.128;9.278;2023-06-26T02:00:01;7.75;;;5.25;;
38717;SDS011;24468;52.128;9.278;2023-06-26T02:02:28;7.43;;;5.97;;
38717;SDS011;24468;52.128;9.278;2023-06-26T02:04:54;5.88;;;5.18;;
38717;SDS011;24468;52.128;9.278;2023-06-26T02:07:20;6.20;;;5.47;;
38717;SDS011;24468;52.128;9.278;2023-06-26T02:09:45;6.35;;;5.75;;
38717;SDS011;24468;52.128;9.278;2023-06-26T02:12:11;7.13;;;5.70;;
38717;SDS011;24468;52.128;9.278;2023-06-26T02:14:36;10.63;;;5.63;;
38717;SDS011;24468;52.128;9.278;2023-06-26T02:17:02;8.23;;;5.90;;
38717;SDS011;24468;52.128;9.278;2023-06-26T02:19:28;9.30;;;6.53;;
38717;SDS011;24468;52.128;9.278;2023-06-26T02:21:54;5.97;;;5.43;;
38717;SDS011;24468;52.128;9.278;2023-06-26T02:24:19;5.38;;;4.82;;
38717;SDS011;24468;52.128;9.278;2023-06-26T02:26:45;5.68;;;5.18;;
38717;SDS011;24468;52.128;9.278;2023-06-26T02:29:11;6.97;;;5.90;;
38717;SDS011;24468;52.128;9.278;2023-06-26T02:31:37;6.22;;;5.63;;
38717;SDS011;24468;52.128;9.278;2023-06-26T02:34:03;5.38;;;4.88;;
38717;SDS011;24468;52.128;9.278;2023-06-26T02:36:29;7.45;;;5.35;;
38717;SDS011;24468;52.128;9.278;2023-06-26T02:38:55;8.07;;;5.47;;
38717;SDS011;24468;52.128;9.278;2023-06-26T02:41:20;7.65;;;5.63;;
38717;SDS011;24468;52.128;9.278;2023-06-26T02:43:46;11.93;;;5.95;;
38717;SDS011;24468;52.128;9.278;2023-06-26T02:46:11;11.85;;;5.32;;
38717;SDS011;24468;52.128;9.278;2023-06-26T02:48:37;16.40;;;5.95;;
38717;SDS011;24468;52.128;9.278;2023-06-26T02:51:02;10.88;;;5.07;;
38717;SDS011;24468;52.128;9.278;2023-06-26T02:53:28;7.65;;;5.03;;
38717;SDS011;24468;52.128;9.278;2023-06-26T02:55:53;14.90;;;5.68;;
38717;SDS011;24468;52.128;9.278;2023-06-26T02:58:19;14.13;;;5.20;;
38717;SDS011;24468;52.128;9.278;2023-06-26T03:00:45;8.50;;;5.40;;
38717;SDS011;24468;52.128;9.278;2023-06-26T03:03:10;8.35;;;5.70;;
38717;SDS011;24468;52.128;9.278;2023-06-26T03:05:37;6.00;;;5.50;;
38717;SDS011;24468;52.128;9.278;2023-06-26T03:08:03;6.88;;;6.18;;
38717;SDS011;24468;52.128;9.278;2023-06-26T03:10:29;6.68;;;5.30;;
38717;SDS011;24468;52.128;9.278;2023-06-26T03:12:54;6.35;;;4.68;;
38717;SDS011;24468;52.128;9.278;2023-06-26T03:15:20;8.38;;;5.30;;
38717;SDS011;24468;52.128;9.278;2023-06-26T03:17:45;7.15;;;6.00;;
38717;SDS011;24468;52.128;9.278;2023-06-26T03:20:11;6.53;;;5.93;;
38717;SDS011;24468;52.128;9.278;2023-06-26T03:22:36;10.02;;;5.38;;
38717;SDS011;24468;52.128;9.278;2023-06-26T03:25:02;6.20;;;5.40;;
38717;SDS011;24468;52.128;9.278;2023-06-26T03:27:29;5.35;;;4.78;;
38717;SDS011;24468;52.128;9.278;2023-06-26T03:29:55;5.85;;;5.22;;
38717;SDS011;24468;52.128;9.278;2023-06-26T03:32:21;5.55;;;5.05;;
38717;SDS011;24468;52.128;9.278;2023-06-26T03:34:46;9.45;;;5.03;;
38717;SDS011;24468;52.128;9.278;2023-06-26T03:37:12;6.22;;;5.07;;
38717;SDS011;24468;52.128;9.278;2023-06-26T03:39:37;5.72;;;4.53;;
38717;SDS011;24468;52.128;9.278;2023-06-26T03:42:03;7.78;;;5.60;;
38717;SDS011;24468;52.128;9.278;2023-06-26T03:44:29;5.75;;;5.07;;
38717;SDS011;24468;52.128;9.278;2023-06-26T03:46:55;7.10;;;5.72;;
38717;SDS011;24468;52.128;9.278;2023-06-26T03:49:22;8.93;;;4.85;;
38717;SDS011;24468;52.128;9.278;2023-06-26T03:51:47;8.73;;;5.32;;
38717;SDS011;24468;52.128;9.278;2023-06-26T03:54:13;8.90;;;5.28;;
38717;SDS011;24468;52.128;9.278;2023-06-26T03:56:38;5.20;;;4.70;;
38717;SDS011;24468;52.128;9.278;2023-06-26T03:59:04;6.18;;;4.88;;
38717;SDS011;24468;52.128;9.278;2023-06-26T04:01:29;7.55;;;4.53;;
38717;SDS011;24468;52.128;9.278;2023-06-26T04:03:55;5.22;;;4.72;;
38717;SDS011;24468;52.128;9.278;2023-06-26T04:06:20;5.68;;;4.38;;
38717;SDS011;24468;52.128;9.278;2023-06-26T04:08:46;5.00;;;4.50;;
38717;SDS011;24468;52.128;9.278;2023-06-26T04:11:11;6.68;;;5.50;;
38717;SDS011;24468;52.128;9.278;2023-06-26T04:13:37;6.30;;;4.78;;
38717;SDS011;24468;52.128;9.278;2023-06-26T04:16:02;7.70;;;5.00;;
38717;SDS011;24468;52.128;9.278;2023-06-26T04:18:28;7.90;;;5.30;;
38717;SDS011;24468;52.128;9.278;2023-06-26T04:21:10;7.35;;;4.90;;
38717;SDS011;24468;52.128;9.278;2023-06-26T04:23:38;6.68;;;4.72;;
38717;SDS011;24468;52.128;9.278;2023-06-26T04:26:05;8.15;;;4.60;;
38717;SDS011;24468;52.128;9.278;2023-06-26T04:28:32;6.45;;;4.85;;
38717;SDS011;24468;52.128;9.278;2023-06-26T04:30:59;9.63;;;5.25;;
38717;SDS011;24468;52.128;9.278;2023-06-26T04:33:25;11.00;;;5.35;;
38717;SDS011;24468;52.128;9.278;2023-06-26T04:35:51;11.95;;;4.90;;
38717;SDS011;24468;52.128;9.278;2023-06-26T04:38:18;7.68;;;4.65;;
38717;SDS011;24468;52.128;9.278;2023-06-26T04:40:44;10.30;;;5.68;;
38717;SDS011;24468;52.128;9.278;2023-06-26T04:43:10;5.13;;;4.60;;
38717;SDS011;24468;52.128;9.278;2023-06-26T04:45:35;5.70;;;4.60;;
38717;SDS011;24468;52.128;9.278;2023-06-26T04:48:02;6.53;;;4.90;;
38717;SDS011;24468;52.128;9.278;2023-06-26T04:50:28;5.90;;;5.05;;
38717;SDS011;24468;52.128;9.278;2023-06-26T04:52:55;7.18;;;5.35;;
38717;SDS011;24468;52.128;9.278;2023-06-26T04:55:23;6.97;;;5.50;;
38717;SDS011;24468;52.128;9.278;2023-06-26T04:57:49;7.28;;;4.55;;
38717;SDS011;24468;52.128;9.278;2023-06-26T05:00:15;6.97;;;4.93;;
38717;SDS011;24468;52.128;9.278;2023-06-26T05:02:41;16.15;;;6.60;;
38717;SDS011;24468;52.128;9.278;2023-06-26T05:05:07;12.57;;;6.00;;
38717;SDS011;24468;52.128;9.278;2023-06-26T05:07:32;8.40;;;5.22;;
38717;SDS011;24468;52.128;9.278;2023-06-26T05:09:58;6.05;;;5.07;;
38717;SDS011;24468;52.128;9.278;2023-06-26T05:12:23;5.75;;;4.85;;
38717;SDS011;24468;52.128;9.278;2023-06-26T05:14:49;6.00;;;5.35;;
38717;SDS011;24468;52.128;9.278;2023-06-26T05:17:15;5.63;;;4.72;;
38717;SDS011;24468;52.128;9.278;2023-06-26T05:19:40;8.55;;;5.22;;
38717;SDS011;24468;52.128;9.278;2023-06-26T05:22:06;5.43;;;4.93;;
38717;SDS011;24468;52.128;9.278;2023-06-26T05:24:36;7.45;;;5.35;;
38717;SDS011;24468;52.128;9.278;2023-06-26T05:27:03;6.25;;;4.80;;
38717;SDS011;24468;52.128;9.278;2023-06-26T05:29:30;5.60;;;5.00;;
38717;SDS011;24468;52.128;9.278;2023-06-26T05:31:57;6.75;;;5.38;;
38717;SDS011;24468;52.128;9.278;2023-06-26T05:34:23;5.20;;;4.70;;
38717;SDS011;24468;52.128;9.278;2023-06-26T05:36:50;6.95;;;5.40;;
38717;SDS011;24468;52.128;9.278;2023-06-26T05:39:17;7.03;;;5.10;;
38717;SDS011;24468;52.128;9.278;2023-06-26T05:41:43;5.18;;;4.53;;
38717;SDS011;24468;52.128;9.278;2023-06-26T05:44:10;5.22;;;4.68;;
38717;SDS011;24468;52.128;9.278;2023-06-26T05:46:35;7.35;;;4.75;;
38717;SDS011;24468;52.128;9.278;2023-06-26T05:49:01;7.90;;;5.07;;
38717;SDS011;24468;52.128;9.278;2023-06-26T05:51:27;5.32;;;4.65;;
38717;SDS011;24468;52.128;9.278;2023-06-26T05:53:53;6.57;;;5.35;;
38717;SDS011;24468;52.128;9.278;2023-06-26T05:56:19;8.23;;;4.82;;
38717;SDS011;24468;52.128;9.278;2023-06-26T05:58:45;5.65;;;5.15;;
38717;SDS011;24468;52.128;9.278;2023-06-26T06:01:12;5.78;;;5.28;;
38717;SDS011;24468;52.128;9.278;2023-06-26T06:03:38;8.63;;;4.90;;
38717;SDS011;24468;52.128;9.278;2023-06-26T06:06:05;6.95;;;5.35;;
38717;SDS011;24468;52.128;9.278;2023-06-26T06:08:31;5.60;;;4.95;;
38717;SDS011;24468;52.128;9.278;2023-06-26T06:10:56;8.40;;;5.15;;
38717;SDS011;24468;52.128;9.278;2023-06-26T06:13:22;6.70;;;5.07;;
38717;SDS011;24468;52.128;9.278;2023-06-26T06:15:48;7.20;;;5.53;;
38717;SDS011;24468;52.128;9.278;2023-06-26T06:18:14;5.57;;;5.07;;
38717;SDS011;24468;52.128;9.278;2023-06-26T06:20:39;5.72;;;5.20;;
38717;SDS011;24468;52.128;9.278;2023-06-26T06:23:06;6.50;;;5.00;;
38717;SDS011;24468;52.128;9.278;2023-06-26T06:25:32;6.95;;;4.80;;
38717;SDS011;24468;52.128;9.278;2023-06-26T06:27:57;6.18;;;4.95;;
38717;SDS011;24468;52.128;9.278;2023-06-26T06:30:23;5.50;;;5.00;;
38717;SDS011;24468;52.128;9.278;2023-06-26T06:32:48;6.57;;;4.90;;
38717;SDS011;24468;52.128;9.278;2023-06-26T06:35:19;6.57;;;5.20;;
38717;SDS011;24468;52.128;9.278;2023-06-26T06:37:45;6.15;;;4.95;;
38717;SDS011;24468;52.128;9.278;2023-06-26T06:40:11;7.40;;;5.28;;
38717;SDS011;24468;52.128;9.278;2023-06-26T06:42:37;7.03;;;5.63;;
38717;SDS011;24468;52.128;9.278;2023-06-26T06:45:03;6.32;;;5.43;;
38717;SDS011;24468;52.128;9.278;2023-06-26T06:47:29;8.48;;;5.50;;
38717;SDS011;24468;52.128;9.278;2023-06-26T06:49:56;5.93;;;5.32;;
38717;SDS011;24468;52.128;9.278;2023-06-26T06:52:22;7.65;;;5.68;;
38717;SDS011;24468;52.128;9.278;2023-06-26T06:54:54;7.43;;;5.75;;
38717;SDS011;24468;52.128;9.278;2023-06-26T06:57:30;6.90;;;6.22;;
38717;SDS011;24468;52.128;9.278;2023-06-26T06:59:55;6.40;;;5.05;;
38717;SDS011;24468;52.128;9.278;2023-06-26T07:02:21;5.78;;;5.22;;
38717;SDS011;24468;52.128;9.278;2023-06-26T07:04:46;5.50;;;4.88;;
38717;SDS011;24468;52.128;9.278;2023-06-26T07:07:12;9.20;;;5.75;;
38717;SDS011;24468;52.128;9.278;2023-06-26T07:09:40;8.07;;;5.40;;
38717;SDS011;24468;52.128;9.278;2023-06-26T07:12:06;6.00;;;5.40;;
38717;SDS011;24468;52.128;9.278;2023-06-26T07:14:32;6.68;;;5.93;;
38717;SDS011;24468;52.128;9.278;2023-06-26T07:16:57;7.32;;;6.00;;
38717;SDS011;24468;52.128;9.278;2023-06-26T07:19:23;7.28;;;5.78;;
38717;SDS011;24468;52.128;9.278;2023-06-26T07:21:48;8.55;;;5.72;;
38717;SDS011;24468;52.128;9.278;2023-06-26T07:24:14;7.43;;;6.60;;
38717;SDS011;24468;52.128;9.278;2023-06-26T07:26:39;6.63;;;6.03;;
38717;SDS011;24468;52.128;9.278;2023-06-26T07:29:05;6.05;;;5.55;;
38717;SDS011;24468;52.128;9.278;2023-06-26T07:31:31;8.55;;;5.80;;
38717;SDS011;24468;52.128;9.278;2023-06-26T07:33:57;7.55;;;5.88;;
38717;SDS011;24468;52.128;9.278;2023-06-26T07:36:22;6.53;;;5.93;;
38717;SDS011;24468;52.128;9.278;2023-06-26T07:38:48;7.72;;;5.80;;
38717;SDS011;24468;52.128;9.278;2023-06-26T07:41:13;6.70;;;6.10;;
38717;SDS011;24468;52.128;9.278;2023-06-26T07:43:39;6.55;;;5.95;;
38717;SDS011;24468;52.128;9.278;2023-06-26T07:46:05;9.65;;;6.30;;
38717;SDS011;24468;52.128;9.278;2023-06-26T07:48:30;7.43;;;5.88;;
38717;SDS011;24468;52.128;9.278;2023-06-26T07:50:56;8.20;;;6.38;;
38717;SDS011;24468;52.128;9.278;2023-06-26T07:53:21;7.55;;;6.50;;
38717;SDS011;24468;52.128;9.278;2023-06-26T07:55:47;6.47;;;5.88;;
38717;SDS011;24468;52.128;9.278;2023-06-26T07:58:12;8.20;;;6.10;;
38717;SDS011;24468;52.128;9.278;2023-06-26T08:00:38;8.43;;;6.65;;
38717;SDS011;24468;52.128;9.278;2023-06-26T08:03:03;10.60;;;6.47;;
38717;SDS011;24468;52.128;9.278;2023-06-26T08:05:29;6.85;;;6.15;;
38717;SDS011;24468;52.128;9.278;2023-06-26T08:07:54;10.30;;;6.57;;
38717;SDS011;24468;52.128;9.278;2023-06-26T08:10:20;8.70;;;6.53;;
38717;SDS011;24468;52.128;9.278;2023-06-26T08:12:46;6.68;;;5.95;;
38717;SDS011;24468;52.128;9.278;2023-06-26T08:15:11;7.28;;;6.30;;
38717;SDS011;24468;52.128;9.278;2023-06-26T08:17:37;10.05;;;6.80;;
38717;SDS011;24468;52.128;9.278;2023-06-26T08:20:03;7.05;;;6.35;;
38717;SDS011;24468;52.128;9.278;2023-06-26T08:22:30;7.13;;;6.43;;
38717;SDS011;24468;52.128;9.278;2023-06-26T08:24:56;8.30;;;7.03;;
38717;SDS011;24468;52.128;9.278;2023-06-26T08:27:21;8.02;;;6.88;;
38717;SDS011;24468;52.128;9.278;2023-06-26T08:29:47;10.63;;;6.78;;
38717;SDS011;24468;52.128;9.278;2023-06-26T08:32:13;8.15;;;7.20;;
38717;SDS011;24468;52.128;9.278;2023-06-26T08:34:38;7.68;;;6.97;;
38717;SDS011;24468;52.128;9.278;2023-06-26T08:37:04;8.57;;;7.03;;
38717;SDS011;24468;52.128;9.278;2023-06-26T08:39:30;7.20;;;6.50;;
38717;SDS011;24468;52.128;9.278;2023-06-26T08:41:56;8.00;;;7.20;;
38717;SDS011;24468;52.128;9.278;2023-06-26T08:44:21;7.47;;;6.53;;
38717;SDS011;24468;52.128;9.278;2023-06-26T08:46:50;5.85;;;5.35;;
38717;SDS011;24468;52.128;9.278;2023-06-26T08:52:24;15.52;;;6.20;;
38717;SDS011;24468;52.128;9.278;2023-06-26T08:54:57;9.02;;;6.07;;
38717;SDS011;24468;52.128;9.278;2023-06-26T08:57:26;7.70;;;6.85;;
38717;SDS011;24468;52.128;9.278;2023-06-26T08:59:52;8.57;;;6.90;;
38717;SDS011;24468;52.128;9.278;2023-06-26T09:02:19;8.57;;;6.15;;
38717;SDS011;24468;52.128;9.278;2023-06-26T09:04:47;10.40;;;6.45;;
38717;SDS011;24468;52.128;9.278;2023-06-26T09:07:16;9.80;;;6.25;;
38717;SDS011;24468;52.128;9.278;2023-06-26T09:09:42;6.68;;;6.05;;
38717;SDS011;24468;52.128;9.278;2023-06-26T09:12:08;10.30;;;7.18;;
38717;SDS011;24468;52.128;9.278;2023-06-26T09:14:35;8.82;;;6.80;;
38717;SDS011;24468;52.128;9.278;2023-06-26T09:17:03;10.63;;;6.82;;
38717;SDS011;24468;52.128;9.278;2023-06-26T09:19:28;11.77;;;6.78;;
38717;SDS011;24468;52.128;9.278;2023-06-26T09:21:54;9.75;;;6.93;;
38717;SDS011;24468;52.128;9.278;2023-06-26T09:24:20;8.27;;;6.20;;
38717;SDS011;24468;52.128;9.278;2023-06-26T09:26:47;7.55;;;6.55;;
38717;SDS011;24468;52.128;9.278;2023-06-26T09:29:13;10.57;;;6.63;;
38717;SDS011;24468;52.128;9.278;2023-06-26T09:31:40;10.70;;;7.15;;
38717;SDS011;24468;52.128;9.278;2023-06-26T09:34:05;12.27;;;7.07;;
38717;SDS011;24468;52.128;9.278;2023-06-26T09:36:32;7.75;;;6.18;;
38717;SDS011;24468;52.128;9.278;2023-06-26T09:38:59;8.25;;;7.00;;
38717;SDS011;24468;52.128;9.278;2023-06-26T09:41:26;10.63;;;6.68;;
38717;SDS011;24468;52.128;9.278;2023-06-26T09:43:52;15.30;;;8.60;;
38717;SDS011;24468;52.128;9.278;2023-06-26T09:49:04;10.75;;;8.30;;
38717;SDS011;24468;52.128;9.278;2023-06-26T09:51:36;9.45;;;7.88;;
38717;SDS011;24468;52.128;9.278;2023-06-26T09:54:04;9.73;;;7.95;;
38717;SDS011;24468;52.128;9.278;2023-06-26T09:56:31;14.35;;;9.18;;
38717;SDS011;24468;52.128;9.278;2023-06-26T09:59:01;12.60;;;9.23;;
38717;SDS011;24468;52.128;9.278;2023-06-26T10:01:30;16.83;;;10.60;;
38717;SDS011;24468;52.128;9.278;2023-06-26T10:03:57;11.45;;;9.25;;
38717;SDS011;24468;52.128;9.278;2023-06-26T10:06:36;17.75;;;10.20;;
38717;SDS011;24468;52.128;9.278;2023-06-26T10:09:06;10.77;;;9.05;;
38717;SDS011;24468;52.128;9.278;2023-06-26T10:11:35;10.50;;;9.40;;
38717;SDS011;24468;52.128;9.278;2023-06-26T10:14:06;10.77;;;9.60;;
38717;SDS011;24468;52.128;9.278;2023-06-26T10:16:33;16.83;;;9.75;;
38717;SDS011;24468;52.128;9.278;2023-06-26T10:19:05;11.18;;;7.82;;
38717;SDS011;24468;52.128;9.278;2023-06-26T10:21:33;11.27;;;7.85;;
38717;SDS011;24468;52.128;9.278;2023-06-26T10:23:59;9.18;;;8.20;;
38717;SDS011;24468;52.128;9.278;2023-06-26T10:26:27;12.55;;;8.63;;
38717;SDS011;24468;52.128;9.278;2023-06-26T10:28:54;11.65;;;7.90;;
38717;SDS011;24468;52.128;9.278;2023-06-26T10:35:05;9.90;;;8.68;;
38717;SDS011;24468;52.128;9.278;2023-06-26T10:37:44;11.35;;;8.15;;
38717;SDS011;24468;52.128;9.278;2023-06-26T10:40:17;11.38;;;7.35;;
38717;SDS011;24468;52.128;9.278;2023-06-26T10:42:49;10.38;;;7.70;;
38717;SDS011;24468;52.128;9.278;2023-06-26T10:45:15;12.10;;;6.85;;
38717;SDS011;24468;52.128;9.278;2023-06-26T10:47:48;10.23;;;7.07;;
38717;SDS011;24468;52.128;9.278;2023-06-26T10:53:06;10.18;;;6.35;;
38717;SDS011;24468;52.128;9.278;2023-06-26T10:55:43;9.43;;;6.57;;
38717;SDS011;24468;52.128;9.278;2023-06-26T10:58:32;12.77;;;6.68;;
38717;SDS011;24468;52.128;9.278;2023-06-26T11:06:23;10.02;;;6.57;;
38717;SDS011;24468;52.128;9.278;2023-06-26T11:11:19;10.43;;;6.25;;
38717;SDS011;24468;52.128;9.278;2023-06-26T11:14:05;10.13;;;6.15;;
38717;SDS011;24468;52.128;9.278;2023-06-26T11:16:32;8.48;;;6.28;;
38717;SDS011;24468;52.128;9.278;2023-06-26T11:18:59;9.25;;;5.47;;
38717;SDS011;24468;52.128;9.278;2023-06-26T11:21:25;9.32;;;5.80;;
38717;SDS011;24468;52.128;9.278;2023-06-26T11:23:50;7.95;;;6.13;;
38717;SDS011;24468;52.128;9.278;2023-06-26T11:26:19;9.35;;;6.55;;
38717;SDS011;24468;52.128;9.278;2023-06-26T11:28:53;7.18;;;6.18;;
38717;SDS011;24468;52.128;9.278;2023-06-26T11:33:58;9.73;;;5.63;;
38717;SDS011;24468;52.128;9.278;2023-06-26T11:36:26;10.68;;;6.05;;
38717;SDS011;24468;52.128;9.278;2023-06-26T11:38:56;8.52;;;5.93;;
38717;SDS011;24468;52.128;9.278;2023-06-26T11:41:29;10.38;;;5.45;;
38717;SDS011;24468;52.128;9.278;2023-06-26T11:44:03;6.55;;;5.07;;
38717;SDS011;24468;52.128;9.278;2023-06-26T11:46:30;9.55;;;5.50;;
38717;SDS011;24468;52.128;9.278;2023-06-26T11:48:57;8.30;;;5.38;;
38717;SDS011;24468;52.128;9.278;2023-06-26T11:51:23;6.03;;;4.63;;
38717;SDS011;24468;52.128;9.278;2023-06-26T11:53:51;9.57;;;4.35;;
38717;SDS011;24468;52.128;9.278;2023-06-26T11:56:18;10.25;;;5.10;;
38717;SDS011;24468;52.128;9.278;2023-06-26T12:01:40;7.10;;;4.70;;
38717;SDS011;24468;52.128;9.278;2023-06-26T12:06:38;10.20;;;5.45;;
38717;SDS011;24468;52.128;9.278;2023-06-26T12:09:08;7.85;;;4.50;;
38717;SDS011;24468;52.128;9.278;2023-06-26T12:11:36;4.93;;;3.63;;
38717;SDS011;24468;52.128;9.278;2023-06-26T12:14:07;5.65;;;3.50;;
38717;SDS011;24468;52.128;9.278;2023-06-26T12:16:34;6.72;;;3.65;;
38717;SDS011;24468;52.128;9.278;2023-06-26T12:19:01;5.05;;;3.10;;
38717;SDS011;24468;52.128;9.278;2023-06-26T12:24:02;5.05;;;3.42;;
38717;SDS011;24468;52.128;9.278;2023-06-26T12:26:29;6.07;;;3.35;;
38717;SDS011;24468;52.128;9.278;2023-06-26T12:29:05;8.15;;;3.20;;
38717;SDS011;24468;52.128;9.278;2023-06-26T12:31:33;8.85;;;3.47;;
38717;SDS011;24468;52.128;9.278;2023-06-26T12:33:59;5.32;;;3.08;;
38717;SDS011;24468;52.128;9.278;2023-06-26T12:36:26;4.25;;;3.30;;
38717;SDS011;24468;52.128;9.278;2023-06-26T12:38:52;7.03;;;3.17;;
38717;SDS011;24468;52.128;9.278;2023-06-26T12:41:19;5.68;;;3.03;;
38717;SDS011;24468;52.128;9.278;2023-06-26T12:43:45;7.65;;;2.90;;
38717;SDS011;24468;52.128;9.278;2023-06-26T12:46:11;12.18;;;3.13;;
38717;SDS011;24468;52.128;9.278;2023-06-26T12:48:40;3.63;;;2.30;;
38717;SDS011;24468;52.128;9.278;2023-06-26T12:51:12;9.90;;;2.22;;
38717;SDS011;24468;52.128;9.278;2023-06-26T12:53:39;4.18;;;2.55;;
38717;SDS011;24468;52.128;9.278;2023-06-26T12:56:06;5.38;;;2.75;;
38717;SDS011;24468;52.128;9.278;2023-06-26T12:58:33;3.92;;;2.60;;
38717;SDS011;24468;52.128;9.278;2023-06-26T13:01:03;4.60;;;2.67;;
38717;SDS011;24468;52.128;9.278;2023-06-26T13:03:38;2.38;;;2.00;;
38717;SDS011;24468;52.128;9.278;2023-06-26T13:06:04;4.15;;;2.10;;
38717;SDS011;24468;52.128;9.278;2023-06-26T13:08:29;4.80;;;2.33;;
38717;SDS011;24468;52.128;9.278;2023-06-26T13:10:55;3.95;;;2.15;;
38717;SDS011;24468;52.128;9.278;2023-06-26T13:13:20;4.95;;;2.33;;
38717;SDS011;24468;52.128;9.278;2023-06-26T13:15:47;5.10;;;2.33;;
38717;SDS011;24468;52.128;9.278;2023-06-26T13:18:12;3.38;;;1.83;;
38717;SDS011;24468;52.128;9.278;2023-06-26T13:20:38;4.53;;;2.80;;
38717;SDS011;24468;52.128;9.278;2023-06-26T13:23:03;2.15;;;1.98;;
38717;SDS011;24468;52.128;9.278;2023-06-26T13:25:29;3.63;;;2.08;;
38717;SDS011;24468;52.128;9.278;2023-06-26T13:27:54;5.07;;;2.00;;
38717;SDS011;24468;52.128;9.278;2023-06-26T13:30:21;4.82;;;2.08;;
38717;SDS011;24468;52.128;9.278;2023-06-26T13:32:46;2.38;;;1.88;;
38717;SDS011;24468;52.128;9.278;2023-06-26T13:35:12;4.25;;;2.33;;
38717;SDS011;24468;52.128;9.278;2023-06-26T13:37:38;4.72;;;2.00;;
38717;SDS011;24468;52.128;9.278;2023-06-26T13:40:06;3.85;;;2.00;;
38717;SDS011;24468;52.128;9.278;2023-06-26T13:42:32;3.65;;;2.20;;
38717;SDS011;24468;52.128;9.278;2023-06-26T13:44:58;3.53;;;2.42;;
38717;SDS011;24468;52.128;9.278;2023-06-26T13:47:24;2.83;;;2.10;;
38717;SDS011;24468;52.128;9.278;2023-06-26T13:49:49;4.22;;;2.40;;
38717;SDS011;24468;52.128;9.278;2023-06-26T13:52:15;3.95;;;2.45;;
38717;SDS011;24468;52.128;9.278;2023-06-26T13:54:40;8.43;;;2.40;;
38717;SDS011;24468;52.128;9.278;2023-06-26T13:57:07;4.80;;;2.63;;
38717;SDS011;24468;52.128;9.278;2023-06-26T13:59:33;4.30;;;2.47;;
38717;SDS011;24468;52.128;9.278;2023-06-26T14:01:59;2.55;;;2.33;;
38717;SDS011;24468;52.128;9.278;2023-06-26T14:04:24;4.22;;;1.88;;
38717;SDS011;24468;52.128;9.278;2023-06-26T14:06:51;3.30;;;2.47;;
38717;SDS011;24468;52.128;9.278;2023-06-26T14:09:16;6.25;;;2.50;;
38717;SDS011;24468;52.128;9.278;2023-06-26T14:11:43;7.72;;;2.33;;
38717;SDS011;24468;52.128;9.278;2023-06-26T14:14:08;2.40;;;1.73;;
38717;SDS011;24468;52.128;9.278;2023-06-26T14:16:34;4.90;;;2.00;;
38717;SDS011;24468;52.128;9.278;2023-06-26T14:19:00;3.80;;;2.00;;
38717;SDS011;24468;52.128;9.278;2023-06-26T14:21:26;2.75;;;2.13;;
38717;SDS011;24468;52.128;9.278;2023-06-26T14:23:52;3.58;;;2.25;;
38717;SDS011;24468;52.128;9.278;2023-06-26T14:26:19;2.90;;;2.08;;
38717;SDS011;24468;52.128;9.278;2023-06-26T14:28:45;6.53;;;2.30;;
38717;SDS011;24468;52.128;9.278;2023-06-26T14:31:11;4.45;;;2.10;;
38717;SDS011;24468;52.128;9.278;2023-06-26T14:33:36;2.88;;;1.88;;
38717;SDS011;24468;52.128;9.278;2023-06-26T14:36:02;5.00;;;1.88;;
38717;SDS011;24468;52.128;9.278;2023-06-26T14:38:28;6.00;;;2.10;;
38717;SDS011;24468;52.128;9.278;2023-06-26T14:40:53;10.93;;;2.20;;
38717;SDS011;24468;52.128;9.278;2023-06-26T14:43:19;8.20;;;2.35;;
38717;SDS011;24468;52.128;9.278;2023-06-26T14:45:44;2.60;;;2.28;;
38717;SDS011;24468;52.128;9.278;2023-06-26T14:48:10;5.25;;;2.10;;
38717;SDS011;24468;52.128;9.278;2023-06-26T14:50:35;6.45;;;2.30;;
38717;SDS011;24468;52.128;9.278;2023-06-26T14:53:01;5.00;;;2.10;;
38717;SDS011;24468;52.128;9.278;2023-06-26T14:55:27;6.50;;;2.20;;
38717;SDS011;24468;52.128;9.278;2023-06-26T14:57:53;8.10;;;3.05;;
38717;SDS011;24468;52.128;9.278;2023-06-26T15:00:18;4.60;;;2.13;;
38717;SDS011;24468;52.128;9.278;2023-06-26T15:02:44;8.95;;;2.42;;
38717;SDS011;24468;52.128;9.278;2023-06-26T15:05:10;4.32;;;2.38;;
38717;SDS011;24468;52.128;9.278;2023-06-26T15:07:35;8.45;;;2.97;;
38717;SDS011;24468;52.128;9.278;2023-06-26T15:10:01;5.32;;;2.38;;
38717;SDS011;24468;52.128;9.278;2023-06-26T15:12:27;8.00;;;2.58;;
38717;SDS011;24468;52.128;9.278;2023-06-26T15:14:52;4.03;;;2.15;;
38717;SDS011;24468;52.128;9.278;2023-06-26T15:17:18;5.20;;;2.25;;
38717;SDS011;24468;52.128;9.278;2023-06-26T15:19:43;12.55;;;2.50;;
38717;SDS011;24468;52.128;9.278;2023-06-26T15:22:09;7.07;;;2.00;;
38717;SDS011;24468;52.128;9.278;2023-06-26T15:24:35;4.72;;;2.28;;